sensor_id;sensor_type;location;lat;lon;timestamp;P1;durP1;ratioP1;P2;durP2;ratioP2
850;SDS011;412;51.400;7.480;2023-05-15T00:00:29;8.70;;;8.10;;
850;SDS011;412;51.400;7.480;2023-05-15T00:02:54;7.97;;;7.47;;
850;SDS011;412;51.400;7.480;2023-05-15T00:05:21;8.40;;;7.80;;
850;SDS011;412;51.400;7.480;2023-05-15T00:07:46;9.53;;;8.73;;
850;SDS011;412;51.400;7.480;2023-05-15T00:10:12;9.10;;;8.40;;
850;SDS011;412;51.400;7.480;2023-05-15T00:12:38;9.50;;;8.80;;
850;SDS011;412;51.400;7.480;2023-05-15T00:15:04;9.10;;;8.40;;
850;SDS011;412;51.400;7.480;2023-05-15T00:17:30;9.00;;;8.27;;
850;SDS011;412;51.400;7.480;2023-05-15T00:19:56;9.27;;;8.67;;
850;SDS011;412;51.400;7.480;2023-05-15T00:22:23;9.27;;;8.63;;
850;SDS011;412;51.400;7.480;2023-05-15T00:24:50;9.47;;;8.77;;
850;SDS011;412;51.400;7.480;2023-05-15T00:27:16;9.70;;;9.00;;
850;SDS011;412;51.400;7.480;2023-05-15T00:29:41;9.40;;;8.80;;
850;SDS011;412;51.400;7.480;2023-05-15T00:32:07;9.10;;;8.43;;
850;SDS011;412;51.400;7.480;2023-05-15T00:34:33;10.30;;;9.10;;
850;SDS011;412;51.400;7.480;2023-05-15T00:36:58;9.00;;;8.40;;
850;SDS011;412;51.400;7.480;2023-05-15T00:39:24;9.10;;;8.23;;
850;SDS011;412;51.400;7.480;2023-05-15T00:41:51;8.90;;;8.20;;
850;SDS011;412;51.400;7.480;2023-05-15T00:44:17;8.73;;;8.13;;
850;SDS011;412;51.400;7.480;2023-05-15T00:46:44;9.70;;;8.83;;
850;SDS011;412;51.400;7.480;2023-05-15T00:49:10;9.10;;;8.40;;
850;SDS011;412;51.400;7.480;2023-05-15T00:51:39;8.80;;;8.20;;
850;SDS011;412;51.400;7.480;2023-05-15T00:54:06;8.77;;;8.17;;
850;SDS011;412;51.400;7.480;2023-05-15T00:56:32;8.40;;;7.70;;
850;SDS011;412;51.400;7.480;2023-05-15T00:58:59;9.53;;;8.67;;
850;SDS011;412;51.400;7.480;2023-05-15T01:01:27;9.40;;;8.63;;
850;SDS011;412;51.400;7.480;2023-05-15T01:03:58;8.73;;;8.13;;
850;SDS011;412;51.400;7.480;2023-05-15T01:06:25;9.13;;;8.43;;
850;SDS011;412;51.400;7.480;2023-05-15T01:08:51;9.17;;;8.43;;
850;SDS011;412;51.400;7.480;2023-05-15T01:11:20;9.00;;;8.40;;
850;SDS011;412;51.400;7.480;2023-05-15T01:13:48;8.43;;;7.83;;
850;SDS011;412;51.400;7.480;2023-05-15T01:16:14;8.77;;;8.23;;
850;SDS011;412;51.400;7.480;2023-05-15T01:18:40;8.50;;;8.00;;
850;SDS011;412;51.400;7.480;2023-05-15T01:28:58;8.83;;;8.33;;
850;SDS011;412;51.400;7.480;2023-05-15T01:31:30;8.03;;;7.53;;
850;SDS011;412;51.400;7.480;2023-05-15T01:33:58;7.90;;;7.40;;
850;SDS011;412;51.400;7.480;2023-05-15T01:39:16;8.50;;;7.90;;
850;SDS011;412;51.400;7.480;2023-05-15T01:44:29;8.10;;;7.50;;
850;SDS011;412;51.400;7.480;2023-05-15T01:46:58;9.00;;;8.40;;
850;SDS011;412;51.400;7.480;2023-05-15T01:49:30;8.27;;;7.50;;
850;SDS011;412;51.400;7.480;2023-05-15T01:52:02;8.40;;;7.87;;
850;SDS011;412;51.400;7.480;2023-05-15T01:54:33;9.30;;;8.60;;
850;SDS011;412;51.400;7.480;2023-05-15T01:57:00;8.90;;;8.10;;
850;SDS011;412;51.400;7.480;2023-05-15T01:59:27;8.97;;;8.30;;
850;SDS011;412;51.400;7.480;2023-05-15T02:01:54;8.20;;;7.70;;
850;SDS011;412;51.400;7.480;2023-05-15T02:04:21;8.40;;;7.80;;
850;SDS011;412;51.400;7.480;2023-05-15T02:06:49;8.77;;;8.00;;
850;SDS011;412;51.400;7.480;2023-05-15T02:09:17;8.70;;;8.10;;
850;SDS011;412;51.400;7.480;2023-05-15T02:11:45;8.97;;;8.27;;
850;SDS011;412;51.400;7.480;2023-05-15T02:14:11;8.57;;;7.93;;
850;SDS011;412;51.400;7.480;2023-05-15T02:16:40;8.40;;;7.80;;
850;SDS011;412;51.400;7.480;2023-05-15T02:19:06;7.70;;;7.10;;
850;SDS011;412;51.400;7.480;2023-05-15T02:21:32;8.80;;;8.00;;
850;SDS011;412;51.400;7.480;2023-05-15T02:23:58;16.00;;;8.57;;
850;SDS011;412;51.400;7.480;2023-05-15T02:26:26;7.67;;;6.97;;
850;SDS011;412;51.400;7.480;2023-05-15T02:32:01;8.33;;;7.70;;
850;SDS011;412;51.400;7.480;2023-05-15T02:37:23;7.80;;;7.30;;
850;SDS011;412;51.400;7.480;2023-05-15T02:39:52;8.00;;;7.40;;
850;SDS011;412;51.400;7.480;2023-05-15T02:42:22;8.50;;;8.00;;
850;SDS011;412;51.400;7.480;2023-05-15T02:44:48;8.67;;;8.10;;
850;SDS011;412;51.400;7.480;2023-05-15T02:47:16;8.73;;;8.13;;
850;SDS011;412;51.400;7.480;2023-05-15T02:49:43;8.47;;;7.87;;
850;SDS011;412;51.400;7.480;2023-05-15T02:52:09;8.17;;;7.67;;
850;SDS011;412;51.400;7.480;2023-05-15T02:54:35;8.30;;;7.80;;
850;SDS011;412;51.400;7.480;2023-05-15T02:57:01;8.30;;;7.63;;
850;SDS011;412;51.400;7.480;2023-05-15T02:59:26;8.97;;;8.27;;
850;SDS011;412;51.400;7.480;2023-05-15T03:01:52;8.83;;;8.23;;
850;SDS011;412;51.400;7.480;2023-05-15T03:04:19;8.33;;;7.60;;
850;SDS011;412;51.400;7.480;2023-05-15T03:06:44;8.47;;;7.87;;
850;SDS011;412;51.400;7.480;2023-05-15T03:09:10;8.47;;;7.77;;
850;SDS011;412;51.400;7.480;2023-05-15T03:11:36;8.47;;;7.67;;
850;SDS011;412;51.400;7.480;2023-05-15T03:14:02;9.03;;;8.40;;
850;SDS011;412;51.400;7.480;2023-05-15T03:16:27;8.93;;;8.27;;
850;SDS011;412;51.400;7.480;2023-05-15T03:18:53;9.27;;;8.40;;
850;SDS011;412;51.400;7.480;2023-05-15T03:21:19;8.60;;;7.90;;
850;SDS011;412;51.400;7.480;2023-05-15T03:23:45;8.00;;;7.50;;
850;SDS011;412;51.400;7.480;2023-05-15T03:26:10;8.43;;;7.83;;
850;SDS011;412;51.400;7.480;2023-05-15T03:28:36;8.30;;;7.60;;
850;SDS011;412;51.400;7.480;2023-05-15T03:31:02;9.40;;;8.30;;
850;SDS011;412;51.400;7.480;2023-05-15T03:33:32;9.37;;;8.57;;
850;SDS011;412;51.400;7.480;2023-05-15T03:35:58;8.70;;;8.10;;
850;SDS011;412;51.400;7.480;2023-05-15T03:38:24;8.33;;;7.77;;
850;SDS011;412;51.400;7.480;2023-05-15T03:40:50;9.73;;;9.03;;
850;SDS011;412;51.400;7.480;2023-05-15T03:43:16;9.87;;;9.07;;
850;SDS011;412;51.400;7.480;2023-05-15T03:45:42;10.17;;;9.27;;
850;SDS011;412;51.400;7.480;2023-05-15T03:48:08;9.53;;;8.80;;
850;SDS011;412;51.400;7.480;2023-05-15T03:50:34;13.47;;;12.67;;
850;SDS011;412;51.400;7.480;2023-05-15T03:52:59;8.87;;;8.07;;
850;SDS011;412;51.400;7.480;2023-05-15T03:55:25;9.93;;;9.23;;
850;SDS011;412;51.400;7.480;2023-05-15T03:57:51;11.80;;;11.10;;
850;SDS011;412;51.400;7.480;2023-05-15T04:00:17;9.33;;;8.53;;
850;SDS011;412;51.400;7.480;2023-05-15T04:02:43;9.73;;;8.93;;
850;SDS011;412;51.400;7.480;2023-05-15T04:05:09;11.50;;;10.60;;
850;SDS011;412;51.400;7.480;2023-05-15T04:07:35;11.63;;;10.47;;
850;SDS011;412;51.400;7.480;2023-05-15T04:10:01;12.57;;;11.47;;
850;SDS011;412;51.400;7.480;2023-05-15T04:12:31;11.57;;;10.67;;
850;SDS011;412;51.400;7.480;2023-05-15T04:15:04;12.67;;;11.57;;
850;SDS011;412;51.400;7.480;2023-05-15T04:17:42;13.47;;;12.00;;
850;SDS011;412;51.400;7.480;2023-05-15T04:20:08;15.73;;;14.10;;
850;SDS011;412;51.400;7.480;2023-05-15T04:22:35;20.67;;;16.80;;
850;SDS011;412;51.400;7.480;2023-05-15T04:25:01;30.60;;;20.40;;
850;SDS011;412;51.400;7.480;2023-05-15T04:27:28;26.07;;;20.87;;
850;SDS011;412;51.400;7.480;2023-05-15T04:29:54;30.60;;;21.37;;
850;SDS011;412;51.400;7.480;2023-05-15T04:32:20;32.57;;;25.17;;
850;SDS011;412;51.400;7.480;2023-05-15T04:34:46;29.63;;;21.50;;
850;SDS011;412;51.400;7.480;2023-05-15T04:37:11;26.33;;;20.90;;
850;SDS011;412;51.400;7.480;2023-05-15T04:39:37;28.47;;;21.17;;
850;SDS011;412;51.400;7.480;2023-05-15T04:42:03;36.30;;;26.50;;
850;SDS011;412;51.400;7.480;2023-05-15T04:44:29;32.80;;;24.20;;
850;SDS011;412;51.400;7.480;2023-05-15T04:46:55;34.77;;;23.93;;
850;SDS011;412;51.400;7.480;2023-05-15T04:49:20;38.30;;;25.93;;
850;SDS011;412;51.400;7.480;2023-05-15T04:51:46;40.47;;;26.77;;
850;SDS011;412;51.400;7.480;2023-05-15T04:54:12;40.23;;;27.30;;
850;SDS011;412;51.400;7.480;2023-05-15T04:56:37;38.63;;;27.60;;
850;SDS011;412;51.400;7.480;2023-05-15T04:59:03;46.20;;;31.30;;
850;SDS011;412;51.400;7.480;2023-05-15T05:01:31;41.90;;;28.77;;
850;SDS011;412;51.400;7.480;2023-05-15T05:03:57;39.27;;;26.90;;
850;SDS011;412;51.400;7.480;2023-05-15T05:06:23;37.53;;;26.80;;
850;SDS011;412;51.400;7.480;2023-05-15T05:08:48;42.87;;;29.20;;
850;SDS011;412;51.400;7.480;2023-05-15T05:11:14;46.20;;;30.50;;
850;SDS011;412;51.400;7.480;2023-05-15T05:13:40;44.47;;;29.87;;
850;SDS011;412;51.400;7.480;2023-05-15T05:16:06;43.63;;;29.73;;
850;SDS011;412;51.400;7.480;2023-05-15T05:18:32;48.47;;;33.00;;
850;SDS011;412;51.400;7.480;2023-05-15T05:21:01;49.40;;;31.27;;
850;SDS011;412;51.400;7.480;2023-05-15T05:23:31;41.87;;;29.73;;
850;SDS011;412;51.400;7.480;2023-05-15T05:25:57;45.57;;;32.50;;
850;SDS011;412;51.400;7.480;2023-05-15T05:28:24;40.40;;;29.13;;
850;SDS011;412;51.400;7.480;2023-05-15T05:30:49;43.07;;;30.50;;
850;SDS011;412;51.400;7.480;2023-05-15T05:33:15;43.70;;;33.10;;
850;SDS011;412;51.400;7.480;2023-05-15T05:35:41;44.27;;;29.80;;
850;SDS011;412;51.400;7.480;2023-05-15T05:38:07;39.80;;;29.37;;
850;SDS011;412;51.400;7.480;2023-05-15T05:40:32;42.47;;;31.07;;
850;SDS011;412;51.400;7.480;2023-05-15T05:43:01;38.67;;;30.23;;
850;SDS011;412;51.400;7.480;2023-05-15T05:45:28;41.80;;;27.63;;
850;SDS011;412;51.400;7.480;2023-05-15T05:47:54;40.17;;;28.40;;
850;SDS011;412;51.400;7.480;2023-05-15T05:50:20;40.63;;;29.50;;
850;SDS011;412;51.400;7.480;2023-05-15T05:52:46;42.77;;;30.20;;
850;SDS011;412;51.400;7.480;2023-05-15T05:55:12;44.47;;;31.50;;
850;SDS011;412;51.400;7.480;2023-05-15T05:57:38;46.97;;;33.43;;
850;SDS011;412;51.400;7.480;2023-05-15T06:00:04;47.87;;;32.77;;
850;SDS011;412;51.400;7.480;2023-05-15T06:02:33;47.63;;;32.50;;
850;SDS011;412;51.400;7.480;2023-05-15T06:04:59;56.50;;;34.57;;
850;SDS011;412;51.400;7.480;2023-05-15T06:07:25;55.50;;;35.47;;
850;SDS011;412;51.400;7.480;2023-05-15T06:09:52;54.97;;;36.20;;
850;SDS011;412;51.400;7.480;2023-05-15T06:12:17;57.70;;;37.80;;
850;SDS011;412;51.400;7.480;2023-05-15T06:14:43;56.40;;;33.90;;
850;SDS011;412;51.400;7.480;2023-05-15T06:17:09;57.77;;;38.23;;
850;SDS011;412;51.400;7.480;2023-05-15T06:19:35;54.00;;;36.80;;
850;SDS011;412;51.400;7.480;2023-05-15T06:22:01;60.73;;;38.80;;
850;SDS011;412;51.400;7.480;2023-05-15T06:24:26;57.87;;;38.43;;
850;SDS011;412;51.400;7.480;2023-05-15T06:26:52;62.00;;;38.60;;
850;SDS011;412;51.400;7.480;2023-05-15T06:29:18;59.30;;;37.03;;
850;SDS011;412;51.400;7.480;2023-05-15T06:31:44;62.23;;;40.07;;
850;SDS011;412;51.400;7.480;2023-05-15T06:34:10;54.67;;;36.50;;
850;SDS011;412;51.400;7.480;2023-05-15T06:36:36;65.03;;;40.97;;
850;SDS011;412;51.400;7.480;2023-05-15T06:39:01;73.73;;;39.17;;
850;SDS011;412;51.400;7.480;2023-05-15T06:41:27;59.80;;;40.27;;
850;SDS011;412;51.400;7.480;2023-05-15T06:43:53;59.50;;;39.43;;
850;SDS011;412;51.400;7.480;2023-05-15T06:46:19;60.00;;;41.42;;
850;SDS011;412;51.400;7.480;2023-05-15T06:48:48;57.23;;;39.80;;
850;SDS011;412;51.400;7.480;2023-05-15T06:51:13;54.73;;;36.00;;
850;SDS011;412;51.400;7.480;2023-05-15T06:53:40;49.03;;;38.33;;
850;SDS011;412;51.400;7.480;2023-05-15T06:56:06;52.47;;;36.50;;
850;SDS011;412;51.400;7.480;2023-05-15T06:58:32;50.73;;;37.23;;
850;SDS011;412;51.400;7.480;2023-05-15T07:00:58;57.00;;;37.77;;
850;SDS011;412;51.400;7.480;2023-05-15T07:03:25;53.30;;;39.43;;
850;SDS011;412;51.400;7.480;2023-05-15T07:05:52;53.50;;;39.33;;
850;SDS011;412;51.400;7.480;2023-05-15T07:08:17;49.83;;;35.73;;
850;SDS011;412;51.400;7.480;2023-05-15T07:10:43;54.23;;;36.20;;
850;SDS011;412;51.400;7.480;2023-05-15T07:13:09;55.40;;;38.90;;
850;SDS011;412;51.400;7.480;2023-05-15T07:15:35;55.37;;;38.30;;
850;SDS011;412;51.400;7.480;2023-05-15T07:18:01;53.37;;;38.53;;
850;SDS011;412;51.400;7.480;2023-05-15T07:20:26;55.60;;;37.90;;
850;SDS011;412;51.400;7.480;2023-05-15T07:22:52;42.27;;;30.80;;
850;SDS011;412;51.400;7.480;2023-05-15T07:25:18;54.33;;;38.33;;
850;SDS011;412;51.400;7.480;2023-05-15T07:27:44;43.97;;;32.50;;
850;SDS011;412;51.400;7.480;2023-05-15T07:30:10;54.50;;;38.43;;
850;SDS011;412;51.400;7.480;2023-05-15T07:32:36;60.47;;;39.77;;
850;SDS011;412;51.400;7.480;2023-05-15T07:35:02;50.57;;;35.83;;
850;SDS011;412;51.400;7.480;2023-05-15T07:37:29;49.07;;;35.70;;
850;SDS011;412;51.400;7.480;2023-05-15T07:39:55;59.47;;;41.37;;
850;SDS011;412;51.400;7.480;2023-05-15T07:42:20;49.10;;;35.77;;
850;SDS011;412;51.400;7.480;2023-05-15T07:44:46;54.10;;;37.70;;
850;SDS011;412;51.400;7.480;2023-05-15T07:47:12;54.80;;;38.17;;
850;SDS011;412;51.400;7.480;2023-05-15T07:49:38;58.37;;;38.43;;
850;SDS011;412;51.400;7.480;2023-05-15T07:52:04;59.53;;;40.23;;
850;SDS011;412;51.400;7.480;2023-05-15T07:54:30;58.97;;;40.80;;
850;SDS011;412;51.400;7.480;2023-05-15T07:56:56;54.03;;;36.60;;
850;SDS011;412;51.400;7.480;2023-05-15T07:59:22;59.87;;;39.63;;
850;SDS011;412;51.400;7.480;2023-05-15T08:01:50;56.77;;;38.83;;
850;SDS011;412;51.400;7.480;2023-05-15T08:04:15;56.83;;;38.37;;
850;SDS011;412;51.400;7.480;2023-05-15T08:06:41;60.63;;;39.97;;
850;SDS011;412;51.400;7.480;2023-05-15T08:09:07;62.23;;;40.30;;
850;SDS011;412;51.400;7.480;2023-05-15T08:11:34;63.37;;;42.47;;
850;SDS011;412;51.400;7.480;2023-05-15T08:14:00;66.20;;;41.87;;
850;SDS011;412;51.400;7.480;2023-05-15T08:16:26;64.60;;;41.73;;
850;SDS011;412;51.400;7.480;2023-05-15T08:18:52;54.93;;;37.90;;
850;SDS011;412;51.400;7.480;2023-05-15T08:21:22;58.93;;;40.13;;
850;SDS011;412;51.400;7.480;2023-05-15T08:23:48;56.67;;;40.57;;
850;SDS011;412;51.400;7.480;2023-05-15T08:26:13;67.73;;;43.93;;
850;SDS011;412;51.400;7.480;2023-05-15T08:28:39;52.10;;;36.60;;
850;SDS011;412;51.400;7.480;2023-05-15T08:31:07;56.20;;;38.27;;
850;SDS011;412;51.400;7.480;2023-05-15T08:33:33;59.43;;;41.13;;
850;SDS011;412;51.400;7.480;2023-05-15T08:35:58;61.73;;;42.77;;
850;SDS011;412;51.400;7.480;2023-05-15T08:38:24;63.90;;;43.90;;
850;SDS011;412;51.400;7.480;2023-05-15T08:40:50;54.90;;;38.27;;
850;SDS011;412;51.400;7.480;2023-05-15T08:43:18;52.60;;;38.87;;
850;SDS011;412;51.400;7.480;2023-05-15T08:45:46;45.20;;;33.47;;
850;SDS011;412;51.400;7.480;2023-05-15T08:48:15;59.13;;;40.93;;
850;SDS011;412;51.400;7.480;2023-05-15T08:50:42;60.03;;;40.57;;
850;SDS011;412;51.400;7.480;2023-05-15T08:53:12;52.47;;;40.33;;
850;SDS011;412;51.400;7.480;2023-05-15T08:55:38;59.43;;;42.00;;
850;SDS011;412;51.400;7.480;2023-05-15T08:58:04;54.27;;;42.10;;
850;SDS011;412;51.400;7.480;2023-05-15T09:00:31;54.27;;;40.80;;
850;SDS011;412;51.400;7.480;2023-05-15T09:02:58;58.40;;;41.73;;
850;SDS011;412;51.400;7.480;2023-05-15T09:05:26;53.87;;;41.03;;
850;SDS011;412;51.400;7.480;2023-05-15T09:07:56;52.47;;;40.57;;
850;SDS011;412;51.400;7.480;2023-05-15T09:10:26;51.27;;;39.97;;
850;SDS011;412;51.400;7.480;2023-05-15T09:12:53;53.17;;;39.23;;
850;SDS011;412;51.400;7.480;2023-05-15T09:15:19;50.20;;;39.47;;
850;SDS011;412;51.400;7.480;2023-05-15T09:17:49;53.03;;;40.70;;
850;SDS011;412;51.400;7.480;2023-05-15T09:20:25;47.00;;;38.50;;
850;SDS011;412;51.400;7.480;2023-05-15T09:23:02;48.80;;;39.00;;
850;SDS011;412;51.400;7.480;2023-05-15T09:25:45;43.20;;;34.30;;
850;SDS011;412;51.400;7.480;2023-05-15T09:28:24;44.53;;;36.83;;
850;SDS011;412;51.400;7.480;2023-05-15T09:31:00;40.23;;;34.83;;
850;SDS011;412;51.400;7.480;2023-05-15T09:33:32;47.90;;;35.40;;
850;SDS011;412;51.400;7.480;2023-05-15T09:36:05;37.93;;;32.70;;
850;SDS011;412;51.400;7.480;2023-05-15T09:38:32;42.33;;;36.43;;
850;SDS011;412;51.400;7.480;2023-05-15T09:41:05;42.80;;;37.27;;
850;SDS011;412;51.400;7.480;2023-05-15T09:43:33;42.30;;;37.77;;
850;SDS011;412;51.400;7.480;2023-05-15T09:46:02;42.40;;;37.67;;
850;SDS011;412;51.400;7.480;2023-05-15T09:48:29;39.20;;;34.93;;
850;SDS011;412;51.400;7.480;2023-05-15T09:50:55;38.97;;;34.87;;
850;SDS011;412;51.400;7.480;2023-05-15T09:53:22;39.53;;;35.37;;
850;SDS011;412;51.400;7.480;2023-05-15T09:55:48;37.13;;;33.20;;
850;SDS011;412;51.400;7.480;2023-05-15T09:58:17;35.30;;;31.60;;
850;SDS011;412;51.400;7.480;2023-05-15T10:00:43;35.43;;;31.23;;
850;SDS011;412;51.400;7.480;2023-05-15T10:03:11;33.67;;;30.20;;
850;SDS011;412;51.400;7.480;2023-05-15T10:05:37;32.73;;;29.33;;
850;SDS011;412;51.400;7.480;2023-05-15T10:08:04;31.13;;;27.90;;
850;SDS011;412;51.400;7.480;2023-05-15T10:10:30;29.90;;;26.83;;
850;SDS011;412;51.400;7.480;2023-05-15T10:12:57;30.93;;;27.87;;
850;SDS011;412;51.400;7.480;2023-05-15T10:15:26;28.80;;;25.97;;
850;SDS011;412;51.400;7.480;2023-05-15T10:17:52;32.17;;;28.97;;
850;SDS011;412;51.400;7.480;2023-05-15T10:20:20;25.97;;;23.57;;
850;SDS011;412;51.400;7.480;2023-05-15T10:22:55;26.07;;;23.57;;
850;SDS011;412;51.400;7.480;2023-05-15T10:28:07;26.17;;;23.60;;
850;SDS011;412;51.400;7.480;2023-05-15T10:30:34;23.47;;;21.00;;
850;SDS011;412;51.400;7.480;2023-05-15T10:33:01;22.30;;;20.13;;
850;SDS011;412;51.400;7.480;2023-05-15T10:35:29;19.93;;;18.13;;
850;SDS011;412;51.400;7.480;2023-05-15T10:37:55;24.83;;;22.43;;
850;SDS011;412;51.400;7.480;2023-05-15T10:40:21;24.20;;;21.67;;
850;SDS011;412;51.400;7.480;2023-05-15T10:42:48;23.97;;;21.47;;
850;SDS011;412;51.400;7.480;2023-05-15T10:45:14;24.23;;;21.67;;
850;SDS011;412;51.400;7.480;2023-05-15T10:47:41;26.43;;;24.10;;
850;SDS011;412;51.400;7.480;2023-05-15T10:50:08;22.97;;;20.80;;
850;SDS011;412;51.400;7.480;2023-05-15T10:52:36;23.47;;;21.37;;
850;SDS011;412;51.400;7.480;2023-05-15T10:55:06;23.63;;;21.27;;
850;SDS011;412;51.400;7.480;2023-05-15T10:57:34;22.67;;;20.60;;
850;SDS011;412;51.400;7.480;2023-05-15T11:00:00;21.20;;;19.20;;
850;SDS011;412;51.400;7.480;2023-05-15T11:02:29;20.30;;;18.57;;
850;SDS011;412;51.400;7.480;2023-05-15T11:05:01;20.13;;;18.13;;
850;SDS011;412;51.400;7.480;2023-05-15T11:07:28;20.73;;;19.00;;
850;SDS011;412;51.400;7.480;2023-05-15T11:09:54;20.03;;;18.07;;
850;SDS011;412;51.400;7.480;2023-05-15T11:12:20;21.77;;;19.77;;
850;SDS011;412;51.400;7.480;2023-05-15T11:17:22;22.20;;;18.20;;
850;SDS011;412;51.400;7.480;2023-05-15T11:27:29;18.37;;;16.53;;
850;SDS011;412;51.400;7.480;2023-05-15T11:32:39;17.90;;;16.40;;
850;SDS011;412;51.400;7.480;2023-05-15T11:37:52;15.70;;;14.23;;
850;SDS011;412;51.400;7.480;2023-05-15T11:40:22;15.40;;;13.80;;
850;SDS011;412;51.400;7.480;2023-05-15T11:45:23;15.00;;;13.60;;
850;SDS011;412;51.400;7.480;2023-05-15T11:47:49;15.40;;;13.97;;
850;SDS011;412;51.400;7.480;2023-05-15T11:50:15;15.83;;;14.23;;
850;SDS011;412;51.400;7.480;2023-05-15T11:52:42;14.73;;;13.53;;
850;SDS011;412;51.400;7.480;2023-05-15T11:55:08;14.33;;;13.13;;
850;SDS011;412;51.400;7.480;2023-05-15T11:57:36;15.43;;;14.20;;
850;SDS011;412;51.400;7.480;2023-05-15T12:00:02;13.80;;;12.80;;
850;SDS011;412;51.400;7.480;2023-05-15T12:02:30;13.07;;;12.03;;
850;SDS011;412;51.400;7.480;2023-05-15T12:04:56;12.43;;;11.40;;
850;SDS011;412;51.400;7.480;2023-05-15T12:07:21;15.23;;;13.63;;
850;SDS011;412;51.400;7.480;2023-05-15T12:09:50;13.47;;;12.07;;
850;SDS011;412;51.400;7.480;2023-05-15T12:12:16;13.10;;;12.00;;
850;SDS011;412;51.400;7.480;2023-05-15T12:14:42;11.80;;;10.80;;
850;SDS011;412;51.400;7.480;2023-05-15T12:17:08;11.47;;;10.60;;
850;SDS011;412;51.400;7.480;2023-05-15T12:19:33;10.90;;;10.00;;
850;SDS011;412;51.400;7.480;2023-05-15T12:22:03;14.60;;;13.40;;
850;SDS011;412;51.400;7.480;2023-05-15T12:24:30;11.57;;;10.67;;
850;SDS011;412;51.400;7.480;2023-05-15T12:26:56;11.90;;;11.00;;
850;SDS011;412;51.400;7.480;2023-05-15T12:29:22;10.80;;;10.00;;
850;SDS011;412;51.400;7.480;2023-05-15T12:31:49;12.90;;;11.80;;
850;SDS011;412;51.400;7.480;2023-05-15T12:34:18;11.20;;;10.47;;
850;SDS011;412;51.400;7.480;2023-05-15T12:36:44;12.10;;;11.03;;
850;SDS011;412;51.400;7.480;2023-05-15T12:39:10;12.77;;;11.57;;
850;SDS011;412;51.400;7.480;2023-05-15T12:41:36;12.13;;;11.03;;
850;SDS011;412;51.400;7.480;2023-05-15T12:44:03;14.43;;;12.53;;
850;SDS011;412;51.400;7.480;2023-05-15T12:46:30;12.43;;;11.23;;
850;SDS011;412;51.400;7.480;2023-05-15T12:48:57;15.20;;;11.97;;
850;SDS011;412;51.400;7.480;2023-05-15T12:51:23;12.17;;;11.17;;
850;SDS011;412;51.400;7.480;2023-05-15T12:53:52;12.77;;;11.73;;
850;SDS011;412;51.400;7.480;2023-05-15T12:56:19;12.90;;;11.80;;
850;SDS011;412;51.400;7.480;2023-05-15T12:58:46;13.57;;;12.37;;
850;SDS011;412;51.400;7.480;2023-05-15T13:01:12;12.13;;;10.90;;
850;SDS011;412;51.400;7.480;2023-05-15T13:03:41;14.60;;;10.70;;
850;SDS011;412;51.400;7.480;2023-05-15T13:06:08;14.20;;;12.80;;
850;SDS011;412;51.400;7.480;2023-05-15T13:08:38;23.17;;;15.70;;
850;SDS011;412;51.400;7.480;2023-05-15T13:11:05;10.90;;;10.07;;
850;SDS011;412;51.400;7.480;2023-05-15T13:16:18;23.00;;;18.70;;
850;SDS011;412;51.400;7.480;2023-05-15T13:18:46;24.97;;;18.90;;
850;SDS011;412;51.400;7.480;2023-05-15T13:21:12;13.30;;;12.00;;
850;SDS011;412;51.400;7.480;2023-05-15T13:23:38;19.40;;;16.27;;
850;SDS011;412;51.400;7.480;2023-05-15T13:26:04;17.83;;;15.93;;
850;SDS011;412;51.400;7.480;2023-05-15T13:28:29;21.00;;;18.50;;
850;SDS011;412;51.400;7.480;2023-05-15T13:30:56;25.57;;;20.23;;
850;SDS011;412;51.400;7.480;2023-05-15T13:33:21;16.70;;;15.10;;
850;SDS011;412;51.400;7.480;2023-05-15T13:35:47;16.03;;;14.33;;
850;SDS011;412;51.400;7.480;2023-05-15T13:38:13;16.00;;;14.40;;
850;SDS011;412;51.400;7.480;2023-05-15T13:40:40;17.20;;;15.40;;
850;SDS011;412;51.400;7.480;2023-05-15T13:43:06;14.83;;;13.43;;
850;SDS011;412;51.400;7.480;2023-05-15T13:45:32;13.20;;;12.10;;
850;SDS011;412;51.400;7.480;2023-05-15T13:47:58;8.83;;;8.13;;
850;SDS011;412;51.400;7.480;2023-05-15T13:50:23;8.77;;;8.03;;
850;SDS011;412;51.400;7.480;2023-05-15T13:52:49;9.00;;;8.40;;
850;SDS011;412;51.400;7.480;2023-05-15T13:55:15;9.10;;;8.50;;
850;SDS011;412;51.400;7.480;2023-05-15T13:57:41;10.57;;;9.53;;
850;SDS011;412;51.400;7.480;2023-05-15T14:00:08;8.90;;;8.27;;
850;SDS011;412;51.400;7.480;2023-05-15T14:02:41;9.33;;;8.47;;
850;SDS011;412;51.400;7.480;2023-05-15T14:05:08;9.30;;;8.47;;
850;SDS011;412;51.400;7.480;2023-05-15T14:07:35;10.13;;;9.33;;
850;SDS011;412;51.400;7.480;2023-05-15T14:10:01;9.50;;;8.77;;
850;SDS011;412;51.400;7.480;2023-05-15T14:12:27;10.00;;;9.03;;
850;SDS011;412;51.400;7.480;2023-05-15T14:14:53;8.90;;;8.30;;
850;SDS011;412;51.400;7.480;2023-05-15T14:17:20;9.37;;;8.70;;
850;SDS011;412;51.400;7.480;2023-05-15T14:19:46;9.07;;;8.37;;
850;SDS011;412;51.400;7.480;2023-05-15T14:22:12;9.63;;;9.03;;
850;SDS011;412;51.400;7.480;2023-05-15T14:24:37;8.57;;;7.97;;
850;SDS011;412;51.400;7.480;2023-05-15T14:27:03;8.10;;;7.57;;
850;SDS011;412;51.400;7.480;2023-05-15T14:29:32;8.90;;;8.20;;
850;SDS011;412;51.400;7.480;2023-05-15T14:31:57;8.37;;;7.90;;
850;SDS011;412;51.400;7.480;2023-05-15T14:34:23;20.37;;;13.40;;
850;SDS011;412;51.400;7.480;2023-05-15T14:36:49;14.70;;;13.17;;
850;SDS011;412;51.400;7.480;2023-05-15T14:39:15;11.67;;;10.43;;
850;SDS011;412;51.400;7.480;2023-05-15T14:41:41;14.47;;;10.53;;
850;SDS011;412;51.400;7.480;2023-05-15T14:44:07;13.33;;;11.00;;
850;SDS011;412;51.400;7.480;2023-05-15T14:46:33;36.40;;;28.03;;
850;SDS011;412;51.400;7.480;2023-05-15T14:49:01;10.43;;;9.53;;
850;SDS011;412;51.400;7.480;2023-05-15T14:51:27;8.60;;;7.90;;
850;SDS011;412;51.400;7.480;2023-05-15T14:53:53;9.10;;;8.30;;
850;SDS011;412;51.400;7.480;2023-05-15T14:56:19;8.50;;;7.90;;
850;SDS011;412;51.400;7.480;2023-05-15T14:58:46;8.67;;;7.87;;
850;SDS011;412;51.400;7.480;2023-05-15T15:01:13;8.83;;;8.13;;
850;SDS011;412;51.400;7.480;2023-05-15T15:03:39;9.60;;;8.90;;
850;SDS011;412;51.400;7.480;2023-05-15T15:06:06;9.47;;;8.77;;
850;SDS011;412;51.400;7.480;2023-05-15T15:08:32;9.60;;;8.90;;
850;SDS011;412;51.400;7.480;2023-05-15T15:10:58;8.30;;;7.60;;
850;SDS011;412;51.400;7.480;2023-05-15T15:13:24;11.63;;;8.97;;
850;SDS011;412;51.400;7.480;2023-05-15T15:15:51;10.23;;;9.00;;
850;SDS011;412;51.400;7.480;2023-05-15T15:18:17;12.40;;;10.87;;
850;SDS011;412;51.400;7.480;2023-05-15T15:20:44;10.27;;;8.40;;
850;SDS011;412;51.400;7.480;2023-05-15T15:23:10;8.73;;;8.03;;
850;SDS011;412;51.400;7.480;2023-05-15T15:25:36;9.90;;;8.90;;
850;SDS011;412;51.400;7.480;2023-05-15T15:28:04;11.10;;;10.00;;
850;SDS011;412;51.400;7.480;2023-05-15T15:30:30;9.90;;;9.00;;
850;SDS011;412;51.400;7.480;2023-05-15T15:32:55;9.27;;;8.50;;
850;SDS011;412;51.400;7.480;2023-05-15T15:35:22;11.27;;;10.17;;
850;SDS011;412;51.400;7.480;2023-05-15T15:37:47;11.03;;;10.20;;
850;SDS011;412;51.400;7.480;2023-05-15T15:40:13;9.80;;;9.00;;
850;SDS011;412;51.400;7.480;2023-05-15T15:42:39;10.93;;;9.43;;
850;SDS011;412;51.400;7.480;2023-05-15T15:45:05;11.47;;;10.57;;
850;SDS011;412;51.400;7.480;2023-05-15T15:47:31;9.67;;;8.77;;
850;SDS011;412;51.400;7.480;2023-05-15T15:49:57;11.17;;;10.10;;
850;SDS011;412;51.400;7.480;2023-05-15T15:52:23;8.40;;;7.70;;
850;SDS011;412;51.400;7.480;2023-05-15T15:54:49;8.60;;;8.00;;
850;SDS011;412;51.400;7.480;2023-05-15T15:57:15;9.73;;;8.70;;
850;SDS011;412;51.400;7.480;2023-05-15T15:59:42;9.07;;;8.37;;
850;SDS011;412;51.400;7.480;2023-05-15T16:02:07;8.70;;;8.10;;
850;SDS011;412;51.400;7.480;2023-05-15T16:04:34;9.67;;;8.87;;